Time;durP1;ratioP1;P1;durP2;ratioP2;P2;SDS_P1;SDS_P2;PMS_P1;PMS_P2;Temp;Humidity;BMP_temperature;BMP_pressure;BME280_temperature;BME280_humidity;BME280_pressure;Samples;Min_cycle;Max_cycle;Signal;HPM_P1;HPM_P2
2022/08/06 00:02:14;;;;;;;2.15;0.40;;;15.10;96.10;;;;;;5012601;28;20676;-38
2022/08/06 00:04:40;;;;;;;3.22;0.40;;;15.10;96.40;;;;;;5025220;28;20127;-39
2022/08/06 00:07:06;;;;;;;2.60;0.38;;;15.00;96.50;;;;;;5013512;28;20053;-40
2022/08/06 00:09:32;;;;;;;0.85;0.30;;;15.00;96.50;;;;;;5015635;28;20033;-39
2022/08/06 00:11:59;;;;;;;1.60;0.52;;;15.00;96.80;;;;;;5014619;28;20045;-38
2022/08/06 00:14:30;;;;;;;1.75;0.40;;;15.00;96.80;;;;;;5012809;28;20145;-40
2022/08/06 00:16:56;;;;;;;2.25;0.60;;;15.00;96.90;;;;;;5010085;28;20675;-39
2022/08/06 00:19:23;;;;;;;1.35;0.32;;;14.90;97.10;;;;;;5017887;28;20042;-38
2022/08/06 00:21:49;;;;;;;3.25;0.70;;;14.90;97.30;;;;;;5016046;28;20133;-40
2022/08/06 00:24:15;;;;;;;4.20;1.02;;;14.80;97.20;;;;;;5017983;28;20044;-40
2022/08/06 00:26:41;;;;;;;3.78;1.73;;;14.80;97.40;;;;;;5010924;28;20037;-39
2022/08/06 00:29:07;;;;;;;4.70;1.90;;;14.80;97.60;;;;;;5021290;28;20083;-40
2022/08/06 00:31:32;;;;;;;4.60;2.92;;;14.70;97.50;;;;;;5012476;28;20120;-40
2022/08/06 00:34:01;;;;;;;5.95;3.20;;;14.70;97.70;;;;;;5016423;28;20108;-38
2022/08/06 00:36:28;;;;;;;7.13;3.17;;;14.70;97.50;;;;;;5010659;28;20230;-39
2022/08/06 00:38:54;;;;;;;4.85;2.60;;;14.60;97.60;;;;;;5015110;28;20040;-39
2022/08/06 00:41:21;;;;;;;6.03;2.67;;;14.60;97.40;;;;;;5010283;28;20562;-38
2022/08/06 00:43:47;;;;;;;3.95;2.22;;;14.50;97.50;;;;;;5017905;28;20049;-38
2022/08/06 00:46:13;;;;;;;4.45;3.03;;;14.50;97.50;;;;;;5008030;28;20079;-40
2022/08/06 00:48:39;;;;;;;5.80;2.95;;;14.50;97.70;;;;;;5014169;28;20384;-38
2022/08/06 00:51:05;;;;;;;5.55;2.95;;;14.50;97.70;;;;;;5013233;28;20049;-38
2022/08/06 00:53:31;;;;;;;6.85;3.65;;;14.40;97.70;;;;;;5015520;28;20116;-38
2022/08/06 00:55:57;;;;;;;5.97;3.35;;;14.40;97.90;;;;;;5013613;28;20112;-38
2022/08/06 00:58:22;;;;;;;5.30;3.08;;;14.30;98.00;;;;;;5015500;28;20034;-37
2022/08/06 01:00:48;;;;;;;7.22;3.35;;;14.30;98.20;;;;;;5009867;28;20052;-37
2022/08/06 01:03:16;;;;;;;7.25;3.60;;;14.30;98.50;;;;;;5013601;28;20129;-38
2022/08/06 01:05:43;;;;;;;6.35;3.05;;;14.20;98.80;;;;;;5016733;28;20103;-39
2022/08/06 01:08:11;;;;;;;4.90;2.80;;;14.20;98.80;;;;;;5011438;28;20065;-38
2022/08/06 01:10:36;;;;;;;5.40;3.25;;;14.20;98.80;;;;;;5016709;28;20044;-40
2022/08/06 01:13:02;;;;;;;5.25;2.72;;;14.20;99.10;;;;;;5019606;28;20029;-37
2022/08/06 01:15:28;;;;;;;7.68;3.33;;;14.20;99.10;;;;;;5013289;28;20483;-38
2022/08/06 01:18:10;;;;;;;6.60;3.45;;;14.20;99.20;;;;;;5021496;28;20135;-38
2022/08/06 01:21:13;;;;;;;5.72;3.20;;;14.20;99.50;;;;;;5016698;28;20203;-40
2022/08/06 01:23:57;;;;;;;;;;;14.10;99.30;;;;;;5018459;28;20394;-38
2022/08/06 01:26:37;;;;;;;5.65;2.78;;;14.10;99.90;;;;;;5011360;28;20405;-38
2022/08/06 01:29:13;;;;;;;5.15;3.53;;;14.00;99.10;;;;;;5012381;28;20045;-38
2022/08/06 01:31:46;;;;;;;6.45;3.85;;;14.00;99.10;;;;;;5034610;28;20077;-37
2022/08/06 01:34:25;;;;;;;9.00;4.93;;;14.00;99.20;;;;;;5015192;28;20042;-38
2022/08/06 01:36:58;;;;;;;9.00;5.82;;;14.00;99.50;;;;;;5016595;28;20062;-38
2022/08/06 01:39:27;;;;;;;9.95;6.38;;;14.00;99.70;;;;;;5007887;28;20128;-38
2022/08/06 01:41:54;;;;;;;9.80;6.32;;;14.00;99.90;;;;;;5012292;28;20573;-38
2022/08/06 01:44:25;;;;;;;9.75;6.10;;;14.00;99.90;;;;;;5022182;28;20509;-40
2022/08/06 01:46:55;;;;;;;9.75;6.43;;;14.00;99.90;;;;;;5011910;28;20045;-41
2022/08/06 01:49:27;;;;;;;9.80;6.38;;;13.90;99.90;;;;;;5023685;28;20049;-38
2022/08/06 01:51:56;;;;;;;10.95;6.28;;;13.90;99.90;;;;;;5015650;28;20057;-37
2022/08/06 01:54:23;;;;;;;9.57;5.53;;;13.80;99.90;;;;;;5008151;28;20040;-38
2022/08/06 01:56:52;;;;;;;8.52;5.25;;;13.70;99.90;;;;;;5009167;28;20042;-37
2022/08/06 01:59:22;;;;;;;11.70;5.22;;;13.70;99.90;;;;;;5012565;28;20046;-38
2022/08/06 02:01:54;;;;;;;9.27;5.53;;;13.70;99.90;;;;;;5018267;28;20045;-40
2022/08/06 02:04:22;;;;;;;7.28;5.40;;;13.70;99.90;;;;;;5016088;28;20041;-39
2022/08/06 02:06:52;;;;;;;8.35;5.75;;;13.70;99.90;;;;;;5017119;28;20034;-38
2022/08/06 02:09:22;;;;;;;7.80;5.03;;;13.70;99.90;;;;;;5008869;28;20104;-40
2022/08/06 02:12:09;;;;;;;7.15;4.55;;;13.70;99.90;;;;;;5010768;28;20038;-37
2022/08/06 02:14:45;;;;;;;7.05;4.22;;;13.70;99.90;;;;;;5017291;28;20140;-40
2022/08/06 02:17:13;;;;;;;7.07;4.32;;;13.70;99.90;;;;;;5017808;28;20176;-39
2022/08/06 02:19:48;;;;;;;5.75;4.10;;;13.70;99.90;;;;;;5007724;28;20034;-41
2022/08/06 02:22:15;;;;;;;9.60;4.65;;;13.60;99.90;;;;;;5018759;28;20102;-40
2022/08/06 02:24:43;;;;;;;5.60;3.78;;;13.70;99.90;;;;;;5017632;28;20033;-42
2022/08/06 02:27:11;;;;;;;5.88;3.42;;;13.70;99.90;;;;;;5015668;28;20125;-41
2022/08/06 02:29:39;;;;;;;6.65;3.20;;;13.60;99.90;;;;;;5022265;28;20034;-42
2022/08/06 02:32:05;;;;;;;5.93;2.97;;;13.60;99.90;;;;;;5017298;28;20052;-41
2022/08/06 02:34:31;;;;;;;4.20;2.42;;;13.70;99.90;;;;;;5024593;28;20438;-41
2022/08/06 02:37:10;;;;;;;4.45;2.65;;;13.60;99.90;;;;;;5016480;28;20030;-39
2022/08/06 02:39:41;;;;;;;2.85;2.03;;;13.60;99.90;;;;;;5015613;28;20044;-42
2022/08/06 02:42:17;;;;;;;6.45;2.05;;;13.60;99.90;;;;;;5020840;28;20506;-37
2022/08/06 02:44:57;;;;;;;2.85;1.80;;;13.60;99.90;;;;;;5020828;28;20471;-38
2022/08/06 02:47:41;;;;;;;3.78;1.88;;;13.60;99.90;;;;;;5017349;28;20041;-38
2022/08/06 02:50:10;;;;;;;5.32;1.90;;;13.60;99.90;;;;;;5020054;28;20046;-41
2022/08/06 02:52:44;;;;;;;2.83;1.60;;;13.60;99.90;;;;;;5017425;28;20121;-40
2022/08/06 02:55:19;;;;;;;4.47;1.73;;;13.50;99.90;;;;;;5015133;28;20045;-41
2022/08/06 02:57:54;;;;;;;3.03;1.45;;;13.50;99.90;;;;;;5016121;28;20096;-39
2022/08/06 03:00:21;;;;;;;2.65;1.40;;;13.50;99.90;;;;;;5018363;28;20488;-39
2022/08/06 03:02:52;;;;;;;2.60;1.10;;;13.50;99.90;;;;;;5015449;28;20049;-41
2022/08/06 03:05:21;;;;;;;3.40;1.58;;;13.40;99.90;;;;;;5013824;28;20152;-39
2022/08/06 03:07:51;;;;;;;2.92;1.40;;;13.30;99.90;;;;;;5013083;28;20034;-39
2022/08/06 03:10:19;;;;;;;5.47;1.30;;;13.10;99.90;;;;;;5013885;28;20049;-35
2022/08/06 03:12:47;;;;;;;2.90;1.40;;;12.90;99.90;;;;;;5012491;28;20494;-40
2022/08/06 03:15:13;;;;;;;2.55;1.10;;;12.90;99.90;;;;;;5015612;28;20433;-38
2022/08/06 03:17:41;;;;;;;3.05;1.10;;;12.90;99.90;;;;;;5021512;28;20099;-39
2022/08/06 03:20:08;;;;;;;1.98;1.00;;;12.80;99.90;;;;;;5017655;28;20092;-40
2022/08/06 03:22:36;;;;;;;2.00;1.00;;;12.80;99.90;;;;;;5019658;28;20491;-38
2022/08/06 03:25:04;;;;;;;1.75;1.00;;;12.80;99.90;;;;;;5019652;28;20463;-40
2022/08/06 03:27:31;;;;;;;2.67;0.50;;;12.80;99.90;;;;;;5017507;28;20111;-40
2022/08/06 03:29:58;;;;;;;1.83;0.90;;;12.80;99.90;;;;;;5018312;28;20099;-39
2022/08/06 03:32:24;;;;;;;1.58;0.70;;;12.70;99.90;;;;;;5015305;28;20049;-36
2022/08/06 03:34:52;;;;;;;2.40;0.68;;;12.70;99.90;;;;;;5018436;28;20034;-38
2022/08/06 03:37:20;;;;;;;0.90;0.60;;;12.70;99.90;;;;;;5020112;28;20184;-38
2022/08/06 03:39:47;;;;;;;1.40;0.70;;;12.70;99.90;;;;;;5016510;28;20111;-38
2022/08/06 03:42:13;;;;;;;1.75;0.70;;;12.60;99.90;;;;;;5016427;28;20045;-39
2022/08/06 03:44:39;;;;;;;1.15;0.90;;;12.60;99.90;;;;;;5012789;28;20041;-38
2022/08/06 03:47:11;;;;;;;2.30;0.80;;;12.70;99.90;;;;;;5016666;28;20440;-40
2022/08/06 03:49:41;;;;;;;1.08;0.73;;;12.70;99.90;;;;;;5012516;28;20034;-41
2022/08/06 03:52:10;;;;;;;1.38;0.70;;;12.70;99.90;;;;;;5020451;28;20063;-38
2022/08/06 03:54:42;;;;;;;2.03;0.80;;;12.70;99.90;;;;;;5018478;28;20159;-41
2022/08/06 03:57:14;;;;;;;1.42;0.68;;;12.70;99.90;;;;;;5015332;28;20109;-36
2022/08/06 03:59:43;;;;;;;1.15;0.80;;;12.70;99.90;;;;;;5017005;28;20515;-38
2022/08/06 04:02:11;;;;;;;2.92;0.80;;;12.70;99.90;;;;;;5020800;28;20045;-38
2022/08/06 04:04:38;;;;;;;7.32;1.02;;;12.80;99.90;;;;;;5016454;28;20046;-41
2022/08/06 04:07:05;;;;;;;2.83;0.93;;;12.80;99.90;;;;;;5015852;28;20038;-37
2022/08/06 04:09:32;;;;;;;1.38;0.80;;;12.80;99.90;;;;;;5015232;28;20034;-41
2022/08/06 04:11:59;;;;;;;1.20;0.70;;;12.80;99.90;;;;;;5021083;28;20038;-47
2022/08/06 04:14:26;;;;;;;1.40;0.80;;;12.60;99.90;;;;;;5020635;28;20116;-39
2022/08/06 04:16:53;;;;;;;2.00;0.70;;;12.60;99.90;;;;;;5020197;28;20041;-38
2022/08/06 04:19:19;;;;;;;1.38;0.93;;;12.60;99.90;;;;;;5018365;28;20462;-41
2022/08/06 04:21:46;;;;;;;1.65;0.90;;;12.70;99.90;;;;;;5017276;28;20053;-38
2022/08/06 04:24:12;;;;;;;1.33;0.73;;;12.70;99.90;;;;;;5011383;28;20046;-40
2022/08/06 04:26:39;;;;;;;1.38;0.77;;;12.70;99.90;;;;;;5015107;28;20038;-40
2022/08/06 04:29:08;;;;;;;2.00;0.80;;;12.80;99.90;;;;;;5010865;28;20057;-38
2022/08/06 04:31:36;;;;;;;1.33;0.70;;;12.80;99.90;;;;;;5020723;28;20057;-39
2022/08/06 04:34:02;;;;;;;2.08;0.88;;;12.90;99.90;;;;;;5018725;28;20044;-37
2022/08/06 04:36:29;;;;;;;1.75;1.00;;;13.00;99.90;;;;;;5020387;28;20082;-39
2022/08/06 04:38:56;;;;;;;2.03;0.75;;;13.00;99.90;;;;;;5014218;28;20128;-38
2022/08/06 04:41:22;;;;;;;1.30;0.80;;;13.00;99.90;;;;;;5016972;28;20148;-40
2022/08/06 04:43:49;;;;;;;1.83;0.60;;;13.10;99.90;;;;;;5010969;28;20125;-41
2022/08/06 04:46:15;;;;;;;1.67;0.80;;;13.10;99.90;;;;;;5015034;28;20037;-39
2022/08/06 04:48:40;;;;;;;1.25;0.63;;;13.20;99.90;;;;;;5019890;28;20048;-40
2022/08/06 04:51:06;;;;;;;1.60;0.77;;;13.20;99.90;;;;;;5020956;28;20037;-41
2022/08/06 04:53:40;;;;;;;1.90;0.47;;;13.20;99.90;;;;;;5015202;28;20046;-48
2022/08/06 04:56:08;;;;;;;3.25;0.90;;;13.30;99.90;;;;;;5016595;28;20045;-39
2022/08/06 04:58:34;;;;;;;2.15;1.10;;;13.40;99.90;;;;;;5023015;28;20124;-39
2022/08/06 05:01:00;;;;;;;2.35;0.65;;;13.40;99.90;;;;;;5017337;28;20510;-38
2022/08/06 05:03:27;;;;;;;1.42;0.77;;;13.40;99.90;;;;;;5016185;28;20483;-39
2022/08/06 05:05:55;;;;;;;1.35;0.70;;;13.40;99.90;;;;;;5015802;28;20425;-39
2022/08/06 05:08:23;;;;;;;1.80;0.90;;;13.40;99.90;;;;;;5014456;28;20060;-38
2022/08/06 05:10:57;;;;;;;1.65;1.00;;;13.40;99.90;;;;;;5014301;28;20037;-41
2022/08/06 05:13:28;;;;;;;3.20;0.80;;;13.40;99.90;;;;;;5011056;28;20357;-38
2022/08/06 05:15:57;;;;;;;1.58;1.10;;;13.40;99.90;;;;;;5014362;28;20041;-39
2022/08/06 05:18:35;;;;;;;1.17;0.75;;;13.50;99.90;;;;;;5016849;28;20034;-39
2022/08/06 05:21:02;;;;;;;2.60;0.90;;;13.50;99.90;;;;;;5015221;28;20054;-34
2022/08/06 05:23:34;;;;;;;2.38;0.85;;;13.50;99.90;;;;;;5011750;28;20140;-41
2022/08/06 05:26:00;;;;;;;;;;;13.50;99.90;;;;;;5018457;28;20053;-38
2022/08/06 05:28:26;;;;;;;3.20;1.08;;;13.60;99.90;;;;;;5016851;28;20302;-38
2022/08/06 05:30:52;;;;;;;1.65;0.70;;;13.50;99.90;;;;;;5019462;28;20419;-39
2022/08/06 05:33:29;;;;;;;1.98;1.17;;;13.40;99.90;;;;;;5015869;28;20041;-39
2022/08/06 05:35:55;;;;;;;2.85;1.25;;;13.40;99.90;;;;;;5012738;28;20092;-38
2022/08/06 05:38:21;;;;;;;4.10;1.20;;;13.40;99.90;;;;;;5015047;28;20073;-40
2022/08/06 05:40:46;;;;;;;2.13;0.75;;;13.40;99.90;;;;;;5012729;28;20438;-38
2022/08/06 05:43:12;;;;;;;3.67;1.60;;;13.50;99.90;;;;;;5012294;28;20422;-41
2022/08/06 05:45:41;;;;;;;3.15;1.30;;;13.60;99.90;;;;;;5015482;28;20076;-39
2022/08/06 05:48:07;;;;;;;3.00;1.45;;;13.60;99.90;;;;;;5016236;28;20124;-38
2022/08/06 05:50:40;;;;;;;1.75;1.00;;;13.70;99.90;;;;;;5011859;28;20046;-38
2022/08/06 05:53:23;;;;;;;2.30;1.20;;;13.80;99.90;;;;;;5010282;28;20041;-40
2022/08/06 05:55:56;;;;;;;2.92;1.30;;;13.80;99.90;;;;;;5020500;28;20080;-39
2022/08/06 05:58:36;;;;;;;2.42;1.40;;;13.80;99.90;;;;;;5023305;28;20053;-41
2022/08/06 06:01:04;;;;;;;2.58;1.10;;;13.90;99.90;;;;;;5024671;28;20037;-40
2022/08/06 06:03:31;;;;;;;3.50;1.23;;;14.00;99.90;;;;;;5014070;28;20057;-38
2022/08/06 06:05:59;;;;;;;4.30;0.90;;;14.20;99.90;;;;;;5018471;28;20128;-40
2022/08/06 06:08:26;;;;;;;2.58;0.90;;;14.40;99.90;;;;;;5018784;28;20179;-39
2022/08/06 06:10:52;;;;;;;5.43;1.33;;;14.50;99.90;;;;;;5023161;28;20145;-40
2022/08/06 06:13:20;;;;;;;2.85;1.15;;;14.70;99.90;;;;;;5018618;28;20045;-41
2022/08/06 06:15:53;;;;;;;3.13;1.05;;;14.80;99.90;;;;;;5020788;28;20029;-38
2022/08/06 06:19:00;;;;;;;3.17;1.00;;;14.90;99.90;;;;;;5019808;28;20475;-40
2022/08/06 06:21:52;;;;;;;1.80;0.82;;;14.90;99.90;;;;;;5023387;28;20123;-38
2022/08/06 06:24:32;;;;;;;2.85;1.20;;;15.00;99.90;;;;;;5022529;28;20169;-40
2022/08/06 06:27:17;;;;;;;1.60;0.68;;;15.10;99.90;;;;;;5025172;28;20048;-38
2022/08/06 06:30:05;;;;;;;1.02;0.57;;;15.20;99.90;;;;;;5016552;28;20044;-35
2022/08/06 06:32:34;;;;;;;1.40;0.80;;;15.30;99.90;;;;;;5016592;28;20383;-41
2022/08/06 06:35:24;;;;;;;2.70;0.80;;;15.50;99.90;;;;;;5022966;28;20068;-36
2022/08/06 06:38:12;;;;;;;1.52;0.70;;;15.60;99.90;;;;;;5018211;28;20326;-38
2022/08/06 06:40:52;;;;;;;6.18;0.70;;;15.70;99.90;;;;;;5021587;28;20037;-37
2022/08/06 06:43:46;;;;;;;3.72;0.60;;;15.90;99.90;;;;;;5016617;28;20050;-39
2022/08/06 06:46:35;;;;;;;1.75;0.40;;;15.90;99.90;;;;;;5023634;28;20041;-40
2022/08/06 06:49:14;;;;;;;2.45;1.17;;;16.00;99.90;;;;;;5013132;28;20042;-35
2022/08/06 06:51:53;;;;;;;2.03;1.00;;;16.10;99.90;;;;;;5019588;28;20045;-41
2022/08/06 06:54:31;;;;;;;1.52;0.70;;;16.20;99.90;;;;;;5019337;28;20152;-40
2022/08/06 06:56:57;;;;;;;3.05;0.80;;;16.30;99.90;;;;;;5031062;28;20394;-38
2022/08/06 06:59:29;;;;;;;0.80;0.57;;;16.30;99.90;;;;;;5017413;28;20061;-38
2022/08/06 07:01:57;;;;;;;2.97;0.77;;;16.50;99.90;;;;;;5018904;28;20041;-38
2022/08/06 07:04:25;;;;;;;1.73;0.57;;;16.50;99.90;;;;;;5016386;28;20045;-41
2022/08/06 07:06:54;;;;;;;3.17;0.60;;;16.60;99.90;;;;;;5018363;28;20081;-38
2022/08/06 07:09:25;;;;;;;1.40;0.30;;;16.60;99.90;;;;;;5016907;28;20558;-39
2022/08/06 07:11:53;;;;;;;1.05;0.38;;;16.70;99.90;;;;;;5018764;28;20057;-38
2022/08/06 07:14:21;;;;;;;1.42;0.40;;;16.70;99.90;;;;;;5021703;28;20077;-39
2022/08/06 07:16:50;;;;;;;1.65;0.32;;;16.80;99.90;;;;;;5020738;28;20041;-40
2022/08/06 07:19:17;;;;;;;1.75;0.30;;;16.90;99.90;;;;;;5013620;28;20049;-38
2022/08/06 07:21:44;;;;;;;3.83;0.65;;;17.00;99.90;;;;;;5020316;28;20048;-38
2022/08/06 07:24:12;;;;;;;1.40;0.40;;;17.10;99.50;;;;;;5014951;28;20512;-38
2022/08/06 07:26:41;;;;;;;0.82;0.30;;;17.10;99.10;;;;;;5014960;28;20076;-39
2022/08/06 07:29:09;;;;;;;2.53;0.30;;;17.20;98.40;;;;;;5018774;28;21627;-38
2022/08/06 07:31:37;;;;;;;0.93;0.40;;;17.20;97.80;;;;;;5019826;28;20045;-39
2022/08/06 07:34:04;;;;;;;2.28;1.10;;;17.30;97.60;;;;;;5018721;28;20128;-37
2022/08/06 07:36:37;;;;;;;1.30;0.20;;;17.30;97.20;;;;;;5015931;28;20538;-39
2022/08/06 07:39:08;;;;;;;1.77;0.20;;;17.40;96.80;;;;;;5016709;28;20040;-38
2022/08/06 07:41:35;;;;;;;2.83;0.40;;;17.50;96.70;;;;;;5023757;28;20038;-40
2022/08/06 07:44:02;;;;;;;1.88;0.30;;;17.60;96.00;;;;;;5018928;28;20124;-37
2022/08/06 07:46:43;;;;;;;2.50;0.32;;;17.60;95.50;;;;;;5017211;28;20098;-39
2022/08/06 07:49:11;;;;;;;0.43;0.10;;;17.70;94.50;;;;;;5016746;28;20744;-40
2022/08/06 07:51:42;;;;;;;2.22;0.20;;;17.70;94.70;;;;;;5013746;28;20518;-39
2022/08/06 07:54:09;;;;;;;2.65;0.30;;;17.80;94.10;;;;;;5020708;28;20038;-39
2022/08/06 07:56:37;;;;;;;1.63;0.28;;;18.00;93.40;;;;;;5017100;28;20471;-39
2022/08/06 07:59:05;;;;;;;2.28;0.30;;;18.10;92.90;;;;;;5019601;28;20171;-38
2022/08/06 08:01:32;;;;;;;3.05;0.28;;;18.10;92.60;;;;;;5013805;28;20046;-42
2022/08/06 08:06:43;;;;;;;1.13;0.30;;;18.00;91.90;;;;;;5011989;28;20143;-41
2022/08/06 08:09:17;;;;;;;3.83;0.32;;;17.90;92.10;;;;;;5019195;28;20259;-36
2022/08/06 08:11:46;;;;;;;2.42;0.30;;;18.10;92.20;;;;;;5028788;28;20033;-40
2022/08/06 08:14:16;;;;;;;4.45;0.30;;;18.20;91.80;;;;;;5012227;28;20080;-38
2022/08/06 08:16:43;;;;;;;0.63;0.13;;;18.40;91.40;;;;;;5007169;28;20056;-39
2022/08/06 08:19:32;;;;;;;0.70;0.20;;;18.50;90.80;;;;;;5009210;28;20046;-41
2022/08/06 08:22:05;;;;;;;1.58;0.30;;;18.60;90.00;;;;;;5009801;28;20057;-38
2022/08/06 08:24:33;;;;;;;1.52;0.30;;;18.80;90.00;;;;;;5011825;28;20361;-37
2022/08/06 08:26:59;;;;;;;1.25;0.30;;;19.00;89.80;;;;;;5013297;28;20069;-42
2022/08/06 08:29:25;;;;;;;2.47;0.30;;;19.20;89.10;;;;;;5021715;28;20049;-36
2022/08/06 08:31:51;;;;;;;1.25;0.28;;;19.30;87.60;;;;;;5018479;28;20073;-35
2022/08/06 08:34:17;;;;;;;2.40;0.40;;;19.50;86.40;;;;;;5012866;28;20065;-36
2022/08/06 08:36:43;;;;;;;0.70;0.30;;;19.60;86.40;;;;;;5015100;28;20045;-40
2022/08/06 08:39:09;;;;;;;1.40;0.30;;;19.60;86.40;;;;;;5015533;28;20419;-36
2022/08/06 08:41:43;;;;;;;2.38;0.40;;;19.70;85.90;;;;;;5016608;28;20468;-43
2022/08/06 08:44:09;;;;;;;3.33;0.40;;;19.80;84.80;;;;;;5011145;28;20581;-37
2022/08/06 08:46:39;;;;;;;3.03;0.30;;;19.90;86.00;;;;;;5011789;28;20053;-43
2022/08/06 08:49:07;;;;;;;2.72;0.50;;;19.90;84.50;;;;;;5013820;28;20042;-43
2022/08/06 08:51:38;;;;;;;0.77;0.30;;;19.80;84.60;;;;;;5013655;28;20402;-41
2022/08/06 08:54:07;;;;;;;4.82;1.08;;;19.70;83.80;;;;;;5014710;28;20080;-36
2022/08/06 08:56:33;;;;;;;2.78;0.40;;;19.80;82.80;;;;;;5012865;28;20455;-37
2022/08/06 08:59:03;;;;;;;2.80;0.30;;;19.90;82.40;;;;;;5027967;28;20038;-38
2022/08/06 09:01:30;;;;;;;4.15;0.43;;;20.00;81.90;;;;;;5011052;28;20132;-45
2022/08/06 09:03:57;;;;;;;1.67;0.60;;;20.20;81.00;;;;;;5017080;28;20213;-44
2022/08/06 09:06:23;;;;;;;6.30;0.73;;;20.30;80.10;;;;;;5007673;28;20490;-45
2022/08/06 09:08:50;;;;;;;6.85;0.65;;;20.40;79.30;;;;;;5020083;28;20037;-38
2022/08/06 09:11:15;;;;;;;1.00;0.47;;;20.40;78.50;;;;;;5015774;28;20078;-43
2022/08/06 09:13:41;;;;;;;1.45;0.50;;;20.40;78.20;;;;;;5014825;28;20073;-39
2022/08/06 09:16:07;;;;;;;1.73;0.50;;;20.40;77.60;;;;;;5020170;28;20037;-46
2022/08/06 09:18:33;;;;;;;0.90;0.38;;;20.50;76.50;;;;;;5013197;28;20045;-42
2022/08/06 09:21:01;;;;;;;2.60;0.50;;;20.30;76.50;;;;;;5020388;28;20037;-38
2022/08/06 09:23:27;;;;;;;2.78;0.55;;;20.30;77.30;;;;;;5013975;28;20347;-38
2022/08/06 09:25:53;;;;;;;3.45;0.70;;;20.30;77.70;;;;;;5010821;28;20030;-37
2022/08/06 09:28:42;;;;;;;1.77;0.50;;;20.50;77.40;;;;;;5012490;28;20498;-45
2022/08/06 09:31:13;;;;;;;2.17;0.43;;;20.90;71.70;;;;;;5013428;28;20050;-46
2022/08/06 09:33:42;;;;;;;0.88;0.40;;;21.10;72.50;;;;;;5020930;28;20029;-45
2022/08/06 09:36:10;;;;;;;3.63;0.65;;;21.20;72.70;;;;;;5016184;28;20046;-39
2022/08/06 09:38:47;;;;;;;1.38;0.40;;;21.20;69.70;;;;;;5013252;28;20091;-45
2022/08/06 09:41:13;;;;;;;1.00;0.40;;;21.20;70.30;;;;;;5018576;28;20399;-43
2022/08/06 09:43:39;;;;;;;2.08;0.50;;;21.30;70.50;;;;;;5013647;28;20080;-43
2022/08/06 09:46:06;;;;;;;1.30;0.50;;;21.30;69.60;;;;;;5020947;28;20404;-43
2022/08/06 09:48:33;;;;;;;1.25;0.60;;;21.30;69.30;;;;;;5013560;28;20048;-40
2022/08/06 09:50:59;;;;;;;2.55;0.60;;;21.30;69.80;;;;;;5014773;28;20601;-42
2022/08/06 09:53:25;;;;;;;0.98;0.50;;;21.30;69.80;;;;;;5013420;28;20491;-41
2022/08/06 09:55:53;;;;;;;2.33;0.60;;;21.20;69.80;;;;;;5018288;28;20084;-42
2022/08/06 09:58:36;;;;;;;1.90;0.50;;;21.10;70.50;;;;;;5019693;28;20136;-42
2022/08/06 10:01:12;;;;;;;;;;;21.00;70.90;;;;;;5018603;28;20046;-42
2022/08/06 10:03:41;;;;;;;2.47;0.50;;;20.90;70.10;;;;;;5021361;28;19982;-36
2022/08/06 10:06:13;;;;;;;1.58;0.60;;;20.70;73.30;;;;;;5015388;28;20084;-47
2022/08/06 10:08:39;;;;;;;2.08;0.60;;;20.60;74.00;;;;;;5013657;28;20041;-40
2022/08/06 10:11:06;;;;;;;4.00;1.45;;;20.40;74.20;;;;;;5013910;28;20118;-38
2022/08/06 10:13:33;;;;;;;2.40;0.50;;;20.10;74.70;;;;;;5018319;28;20042;-39
2022/08/06 10:16:00;;;;;;;1.75;0.80;;;20.00;74.00;;;;;;5020842;28;20126;-39
2022/08/06 10:18:38;;;;;;;1.67;0.60;;;19.90;74.00;;;;;;5015546;28;20049;-47
2022/08/06 10:21:15;;;;;;;2.33;0.70;;;20.10;73.30;;;;;;5007051;28;20115;-37
2022/08/06 10:23:45;;;;;;;3.60;0.75;;;20.30;68.70;;;;;;5017724;28;20406;-37
2022/08/06 10:26:13;;;;;;;1.55;0.60;;;20.60;67.60;;;;;;5014848;28;20048;-38
2022/08/06 10:28:40;;;;;;;2.08;0.70;;;20.80;63.30;;;;;;5018155;28;20045;-36
2022/08/06 10:31:09;;;;;;;2.97;0.82;;;21.10;60.50;;;;;;5021712;28;20052;-41
2022/08/06 10:33:54;;;;;;;2.45;0.88;;;21.30;56.70;;;;;;5018507;28;20119;-41
2022/08/06 10:36:26;;;;;;;3.17;0.80;;;21.50;53.40;;;;;;5023645;28;20187;-41
2022/08/06 10:38:55;;;;;;;1.52;0.90;;;21.80;52.30;;;;;;5018532;28;20498;-41
2022/08/06 10:41:21;;;;;;;1.35;0.65;;;21.90;50.60;;;;;;5017062;28;20403;-42
2022/08/06 10:43:49;;;;;;;2.17;0.75;;;22.10;51.20;;;;;;5020231;28;20063;-40
2022/08/06 10:46:15;;;;;;;2.63;0.90;;;22.20;50.90;;;;;;5021444;28;20049;-45
2022/08/06 10:48:45;;;;;;;0.98;0.60;;;22.30;51.60;;;;;;5029617;28;20045;-42
2022/08/06 10:51:12;;;;;;;3.65;0.60;;;22.40;51.00;;;;;;5005092;28;20046;-40
2022/08/06 10:53:40;;;;;;;1.95;0.68;;;22.50;50.20;;;;;;5022032;28;20045;-39
2022/08/06 10:56:08;;;;;;;1.58;0.90;;;22.40;50.40;;;;;;5016785;28;20041;-38
2022/08/06 10:58:35;;;;;;;1.25;0.80;;;22.20;52.20;;;;;;5020335;28;20454;-40
2022/08/06 11:01:09;;;;;;;1.65;0.75;;;22.00;54.00;;;;;;5020957;28;20506;-40
2022/08/06 11:03:53;;;;;;;1.52;0.60;;;21.90;55.60;;;;;;5014416;28;20467;-40
2022/08/06 11:06:19;;;;;;;2.95;0.75;;;21.70;57.90;;;;;;5013557;28;20502;-40
2022/08/06 11:09:09;;;;;;;3.67;1.05;;;21.60;57.20;;;;;;5013901;28;20084;-43
2022/08/06 11:11:51;;;;;;;1.08;0.60;;;21.60;56.70;;;;;;5018622;28;20041;-41
2022/08/06 11:14:18;;;;;;;1.20;0.60;;;21.50;58.70;;;;;;5010214;28;20495;-37
2022/08/06 11:16:57;;;;;;;1.25;0.50;;;21.50;58.50;;;;;;5016730;28;20037;-42
2022/08/06 11:19:40;;;;;;;1.23;0.40;;;21.60;60.00;;;;;;5010446;28;20491;-40
2022/08/06 11:22:06;;;;;;;1.08;0.45;;;21.80;60.50;;;;;;5014136;28;20116;-40
2022/08/06 11:24:32;;;;;;;1.30;0.50;;;21.80;59.50;;;;;;5017689;28;20486;-39
2022/08/06 11:26:58;;;;;;;2.53;0.70;;;21.80;58.80;;;;;;5016109;28;20050;-39
2022/08/06 11:29:24;;;;;;;1.25;0.65;;;21.80;59.00;;;;;;5013339;28;20048;-38
2022/08/06 11:31:50;;;;;;;1.77;0.60;;;21.90;58.40;;;;;;5011937;28;20042;-41
2022/08/06 11:34:20;;;;;;;1.77;0.55;;;22.00;58.30;;;;;;5013730;28;20127;-35
2022/08/06 11:36:58;;;;;;;1.00;0.47;;;22.10;57.90;;;;;;5015535;28;20025;-43
2022/08/06 11:39:26;;;;;;;1.00;0.40;;;22.50;55.60;;;;;;5010252;28;20412;-36
2022/08/06 11:41:59;;;;;;;1.85;0.50;;;22.60;54.20;;;;;;5018710;28;20037;-38
2022/08/06 11:44:27;;;;;;;1.17;0.43;;;22.60;53.20;;;;;;5000433;28;20072;-38
2022/08/06 11:47:07;;;;;;;0.75;0.40;;;22.70;54.00;;;;;;5013521;28;20034;-40
2022/08/06 11:49:38;;;;;;;1.17;0.50;;;22.70;53.30;;;;;;5014513;28;20046;-41
2022/08/06 11:52:04;;;;;;;2.97;0.60;;;22.90;53.40;;;;;;5011749;28;20042;-41
2022/08/06 11:54:36;;;;;;;1.27;0.50;;;23.10;52.10;;;;;;5022075;28;20040;-42
2022/08/06 11:57:02;;;;;;;1.35;0.50;;;23.30;51.40;;;;;;5013263;28;20440;-42
2022/08/06 11:59:47;;;;;;;2.50;0.60;;;23.40;51.50;;;;;;5015159;28;20140;-41
2022/08/06 12:02:35;;;;;;;1.60;0.52;;;23.50;50.80;;;;;;5018562;28;20419;-39
2022/08/06 12:05:00;;;;;;;1.08;0.40;;;23.40;50.40;;;;;;5006725;28;20049;-39
2022/08/06 12:07:33;;;;;;;1.13;0.45;;;23.30;49.80;;;;;;5015285;28;20104;-42
2022/08/06 12:10:05;;;;;;;2.92;0.50;;;23.20;49.80;;;;;;5014476;28;20108;-39
2022/08/06 12:12:48;;;;;;;3.75;0.70;;;23.00;50.20;;;;;;5011084;28;20037;-38
2022/08/06 12:15:16;;;;;;;2.22;0.60;;;22.90;50.10;;;;;;5010137;28;20038;-44
2022/08/06 12:17:56;;;;;;;2.38;0.40;;;22.90;51.00;;;;;;5015975;28;20075;-43
2022/08/06 12:20:35;;;;;;;1.95;0.65;;;23.10;51.00;;;;;;5009443;28;20136;-38
2022/08/06 12:23:04;;;;;;;2.63;0.60;;;23.30;50.00;;;;;;5013122;28;20041;-36
2022/08/06 12:25:35;;;;;;;2.33;0.50;;;23.50;51.00;;;;;;5014583;28;20034;-43
2022/08/06 12:28:01;;;;;;;3.15;0.60;;;23.70;49.00;;;;;;5008553;28;20179;-37
2022/08/06 12:30:39;;;;;;;1.05;0.43;;;23.80;48.20;;;;;;5012715;28;20044;-40
2022/08/06 12:33:07;;;;;;;1.30;0.43;;;23.90;46.90;;;;;;5012220;28;20041;-42
2022/08/06 12:35:32;;;;;;;1.25;0.60;;;23.90;46.10;;;;;;5016573;28;20439;-40
2022/08/06 12:37:58;;;;;;;1.60;0.50;;;23.90;46.10;;;;;;5012960;28;20113;-40
2022/08/06 12:40:24;;;;;;;4.25;0.73;;;24.00;45.60;;;;;;5012891;28;20072;-46
2022/08/06 12:42:53;;;;;;;3.20;0.77;;;24.10;45.30;;;;;;5011325;28;20037;-44
2022/08/06 12:45:23;;;;;;;3.25;0.52;;;24.20;45.20;;;;;;5014314;28;20048;-45
2022/08/06 12:48:02;;;;;;;1.33;0.50;;;24.40;45.70;;;;;;5014756;28;20056;-46
2022/08/06 12:50:30;;;;;;;1.80;0.60;;;24.50;45.20;;;;;;5010106;28;20041;-43
2022/08/06 12:53:06;;;;;;;2.42;0.70;;;24.40;45.50;;;;;;5011229;28;20042;-42
2022/08/06 12:55:41;;;;;;;1.55;0.70;;;24.40;45.20;;;;;;5008332;28;20156;-43
2022/08/06 12:58:09;;;;;;;1.10;0.70;;;24.50;45.40;;;;;;5009267;28;20065;-44
2022/08/06 13:00:35;;;;;;;2.10;0.80;;;24.40;45.50;;;;;;5008061;28;20057;-44
2022/08/06 13:03:03;;;;;;;1.30;0.57;;;24.40;45.20;;;;;;5016833;28;20566;-42
2022/08/06 13:05:29;;;;;;;2.72;0.80;;;24.60;44.60;;;;;;5028245;28;20440;-44
2022/08/06 13:07:58;;;;;;;2.92;0.60;;;24.70;44.70;;;;;;5030065;28;20076;-45